map of TBU home
TBU - Airport
Location
City:  Nuku'alofa, Vava'u, Tonga
Near (Alt.):Tongatapu
Name:Fua'amotu International Airport
ICAO:NFTF
IATA:TBU

Details
Type:Airport (Aerodrome, Airfield)
Use:International (customs port of entry)
Latitude:2114'17"S (-21.237999)
Longitude:17508'14"W (-175.137166)
Elevation:126 ft (38 m)
Variation:13.70E (WMM2015 magnetic declination)
0.04 annual change
Runways:2
Longest:8795 × 147 ft (2681 × 45 m), paved

Time
Time Zone:UTC+13
Local Time:

Weather
METAR:NFTF 170200Z 25010KT 9999 FEW016 27/20 Q1006
TAF:NFTF 162304Z 1700/1724 24008KT 9999 FEW016 SCT100

Related Locations
Nearby:
Farthest:TMR: 12317 mi / 19822 km
Tamanrasset [Aguemar-Hadj Bey Akhamok], 11, DZ

Find:

   beyond  
but within

Other Information
Maps:
NOTAMs:
Links:
Sources:

  
  • flag of Tonga
  

Sectional Chart

Flight Planning
at skyvector.com

Satellite Image

Google Maps Satellite view

 

Copyright © 2004-2018 Karl L. Swartz. All rights reserved.
The Great Circle Mapper name and logo are trademarks of the Great Circle Mapper.
All other trademarks mentioned herein belong to their respective owners.
Please see credits for attibutions and further copyright information.

  Follow gcmap on Facebook Follow gcmap on Twitter Follow gcmap on Google+ GCmap on LinkedIn

hCard Microformat

Geo Microformat